sensor_id;sensor_type;location;lat;lon;timestamp;P1;durP1;ratioP1;P2;durP2;ratioP2
66739;SDS011;53653;52.188;8.602;2023-12-20T00:00:55;14.30;;;4.20;;
66739;SDS011;53653;52.188;8.602;2023-12-20T00:03:21;14.73;;;4.72;;
66739;SDS011;53653;52.188;8.602;2023-12-20T00:05:47;13.60;;;4.57;;
66739;SDS011;53653;52.188;8.602;2023-12-20T00:08:13;16.98;;;4.72;;
66739;SDS011;53653;52.188;8.602;2023-12-20T00:10:38;15.45;;;4.65;;
66739;SDS011;53653;52.188;8.602;2023-12-20T00:13:04;12.23;;;4.17;;
66739;SDS011;53653;52.188;8.602;2023-12-20T00:15:29;15.20;;;4.20;;
66739;SDS011;53653;52.188;8.602;2023-12-20T00:17:55;13.23;;;4.18;;
66739;SDS011;53653;52.188;8.602;2023-12-20T00:20:21;12.33;;;4.13;;
66739;SDS011;53653;52.188;8.602;2023-12-20T00:22:46;15.30;;;4.63;;
66739;SDS011;53653;52.188;8.602;2023-12-20T00:25:12;12.57;;;3.83;;
66739;SDS011;53653;52.188;8.602;2023-12-20T00:27:37;13.43;;;4.13;;
66739;SDS011;53653;52.188;8.602;2023-12-20T00:30:03;14.18;;;4.47;;
66739;SDS011;53653;52.188;8.602;2023-12-20T00:32:29;12.97;;;4.47;;
66739;SDS011;53653;52.188;8.602;2023-12-20T00:34:54;14.40;;;4.33;;
66739;SDS011;53653;52.188;8.602;2023-12-20T00:37:20;13.80;;;4.60;;
66739;SDS011;53653;52.188;8.602;2023-12-20T00:39:46;11.20;;;3.67;;
66739;SDS011;53653;52.188;8.602;2023-12-20T00:42:12;11.27;;;4.20;;
66739;SDS011;53653;52.188;8.602;2023-12-20T00:44:37;13.98;;;4.25;;
66739;SDS011;53653;52.188;8.602;2023-12-20T00:47:03;14.57;;;3.90;;
66739;SDS011;53653;52.188;8.602;2023-12-20T00:49:29;12.70;;;3.83;;
66739;SDS011;53653;52.188;8.602;2023-12-20T00:51:54;13.03;;;3.50;;
66739;SDS011;53653;52.188;8.602;2023-12-20T00:54:19;11.67;;;3.83;;
66739;SDS011;53653;52.188;8.602;2023-12-20T00:56:45;14.83;;;3.90;;
66739;SDS011;53653;52.188;8.602;2023-12-20T00:59:10;9.63;;;3.80;;
66739;SDS011;53653;52.188;8.602;2023-12-20T01:01:36;14.43;;;3.57;;
66739;SDS011;53653;52.188;8.602;2023-12-20T01:04:01;10.77;;;3.20;;
66739;SDS011;53653;52.188;8.602;2023-12-20T01:06:27;11.23;;;2.83;;
66739;SDS011;53653;52.188;8.602;2023-12-20T01:08:52;12.10;;;3.55;;
66739;SDS011;53653;52.188;8.602;2023-12-20T01:11:18;10.13;;;3.30;;
66739;SDS011;53653;52.188;8.602;2023-12-20T01:13:43;13.17;;;3.13;;
66739;SDS011;53653;52.188;8.602;2023-12-20T01:16:10;11.10;;;2.73;;
66739;SDS011;53653;52.188;8.602;2023-12-20T01:18:36;11.35;;;3.50;;
66739;SDS011;53653;52.188;8.602;2023-12-20T01:21:02;9.57;;;2.90;;
66739;SDS011;53653;52.188;8.602;2023-12-20T01:23:28;12.43;;;2.75;;
66739;SDS011;53653;52.188;8.602;2023-12-20T01:25:54;10.60;;;2.60;;
66739;SDS011;53653;52.188;8.602;2023-12-20T01:28:20;12.73;;;2.92;;
66739;SDS011;53653;52.188;8.602;2023-12-20T01:30:45;13.63;;;3.22;;
66739;SDS011;53653;52.188;8.602;2023-12-20T01:33:11;9.80;;;2.87;;
66739;SDS011;53653;52.188;8.602;2023-12-20T01:35:36;12.93;;;2.83;;
66739;SDS011;53653;52.188;8.602;2023-12-20T01:38:02;9.02;;;2.67;;
66739;SDS011;53653;52.188;8.602;2023-12-20T01:40:28;14.93;;;2.57;;
66739;SDS011;53653;52.188;8.602;2023-12-20T01:43:00;11.45;;;2.60;;
66739;SDS011;53653;52.188;8.602;2023-12-20T01:45:34;9.63;;;2.40;;
66739;SDS011;53653;52.188;8.602;2023-12-20T01:48:00;8.88;;;2.15;;
66739;SDS011;53653;52.188;8.602;2023-12-20T01:50:28;11.35;;;2.35;;
66739;SDS011;53653;52.188;8.602;2023-12-20T01:52:55;9.13;;;2.00;;
66739;SDS011;53653;52.188;8.602;2023-12-20T01:55:25;11.88;;;2.95;;
66739;SDS011;53653;52.188;8.602;2023-12-20T01:57:52;9.10;;;2.03;;
66739;SDS011;53653;52.188;8.602;2023-12-20T02:00:18;10.05;;;2.60;;
66739;SDS011;53653;52.188;8.602;2023-12-20T02:02:49;6.32;;;1.50;;
66739;SDS011;53653;52.188;8.602;2023-12-20T02:05:16;12.57;;;2.53;;
66739;SDS011;53653;52.188;8.602;2023-12-20T02:07:42;10.35;;;2.40;;
66739;SDS011;53653;52.188;8.602;2023-12-20T02:10:07;8.82;;;1.95;;
66739;SDS011;53653;52.188;8.602;2023-12-20T02:12:33;8.60;;;2.17;;
66739;SDS011;53653;52.188;8.602;2023-12-20T02:14:59;8.80;;;1.92;;
66739;SDS011;53653;52.188;8.602;2023-12-20T02:17:25;7.17;;;1.80;;
66739;SDS011;53653;52.188;8.602;2023-12-20T02:19:51;8.45;;;1.73;;
66739;SDS011;53653;52.188;8.602;2023-12-20T02:22:16;12.30;;;2.00;;
66739;SDS011;53653;52.188;8.602;2023-12-20T02:24:42;7.40;;;1.73;;
66739;SDS011;53653;52.188;8.602;2023-12-20T02:27:07;8.43;;;1.90;;
66739;SDS011;53653;52.188;8.602;2023-12-20T02:29:34;10.20;;;1.73;;
66739;SDS011;53653;52.188;8.602;2023-12-20T02:32:00;12.23;;;2.25;;
66739;SDS011;53653;52.188;8.602;2023-12-20T02:34:26;12.47;;;1.80;;
66739;SDS011;53653;52.188;8.602;2023-12-20T02:36:51;11.23;;;2.03;;
66739;SDS011;53653;52.188;8.602;2023-12-20T02:39:17;7.50;;;2.17;;
66739;SDS011;53653;52.188;8.602;2023-12-20T02:41:45;10.40;;;2.15;;
66739;SDS011;53653;52.188;8.602;2023-12-20T02:44:10;11.13;;;2.40;;
66739;SDS011;53653;52.188;8.602;2023-12-20T02:46:35;7.90;;;2.30;;
66739;SDS011;53653;52.188;8.602;2023-12-20T02:49:01;11.23;;;2.10;;
66739;SDS011;53653;52.188;8.602;2023-12-20T02:51:26;8.53;;;3.03;;
66739;SDS011;53653;52.188;8.602;2023-12-20T02:53:52;7.80;;;2.17;;
66739;SDS011;53653;52.188;8.602;2023-12-20T02:56:17;10.30;;;2.77;;
66739;SDS011;53653;52.188;8.602;2023-12-20T02:58:43;13.02;;;2.60;;
66739;SDS011;53653;52.188;8.602;2023-12-20T03:01:08;18.43;;;2.70;;
66739;SDS011;53653;52.188;8.602;2023-12-20T03:03:33;6.80;;;2.40;;
66739;SDS011;53653;52.188;8.602;2023-12-20T03:05:59;14.10;;;3.83;;
66739;SDS011;53653;52.188;8.602;2023-12-20T03:08:25;8.40;;;3.00;;
66739;SDS011;53653;52.188;8.602;2023-12-20T03:10:50;10.50;;;2.90;;
66739;SDS011;53653;52.188;8.602;2023-12-20T03:13:16;10.45;;;2.60;;
66739;SDS011;53653;52.188;8.602;2023-12-20T03:15:41;12.13;;;2.70;;
66739;SDS011;53653;52.188;8.602;2023-12-20T03:18:07;9.33;;;2.77;;
66739;SDS011;53653;52.188;8.602;2023-12-20T03:20:32;11.90;;;3.13;;
66739;SDS011;53653;52.188;8.602;2023-12-20T03:23:00;10.40;;;3.72;;
66739;SDS011;53653;52.188;8.602;2023-12-20T03:25:26;9.60;;;2.97;;
66739;SDS011;53653;52.188;8.602;2023-12-20T03:27:52;12.40;;;3.85;;
66739;SDS011;53653;52.188;8.602;2023-12-20T03:30:17;10.77;;;3.00;;
66739;SDS011;53653;52.188;8.602;2023-12-20T03:32:43;13.10;;;3.80;;
66739;SDS011;53653;52.188;8.602;2023-12-20T03:35:08;14.97;;;3.60;;
66739;SDS011;53653;52.188;8.602;2023-12-20T03:37:34;15.88;;;5.38;;
66739;SDS011;53653;52.188;8.602;2023-12-20T03:39:59;13.20;;;3.50;;
66739;SDS011;53653;52.188;8.602;2023-12-20T03:42:25;13.50;;;3.60;;
66739;SDS011;53653;52.188;8.602;2023-12-20T03:44:50;16.30;;;4.50;;
66739;SDS011;53653;52.188;8.602;2023-12-20T03:47:16;15.37;;;4.60;;
66739;SDS011;53653;52.188;8.602;2023-12-20T03:49:41;14.10;;;4.27;;
66739;SDS011;53653;52.188;8.602;2023-12-20T03:52:07;14.97;;;4.00;;
66739;SDS011;53653;52.188;8.602;2023-12-20T03:54:33;11.88;;;4.07;;
66739;SDS011;53653;52.188;8.602;2023-12-20T03:57:00;16.38;;;4.63;;
66739;SDS011;53653;52.188;8.602;2023-12-20T03:59:25;17.90;;;4.10;;
66739;SDS011;53653;52.188;8.602;2023-12-20T04:01:50;15.43;;;5.33;;
66739;SDS011;53653;52.188;8.602;2023-12-20T04:04:16;10.20;;;3.60;;
66739;SDS011;53653;52.188;8.602;2023-12-20T04:06:41;12.00;;;4.10;;
66739;SDS011;53653;52.188;8.602;2023-12-20T04:09:07;15.03;;;4.73;;
66739;SDS011;53653;52.188;8.602;2023-12-20T04:11:34;12.93;;;4.38;;
66739;SDS011;53653;52.188;8.602;2023-12-20T04:14:00;15.00;;;4.85;;
66739;SDS011;53653;52.188;8.602;2023-12-20T04:16:26;17.20;;;4.17;;
66739;SDS011;53653;52.188;8.602;2023-12-20T04:18:51;17.02;;;4.80;;
66739;SDS011;53653;52.188;8.602;2023-12-20T04:21:17;14.97;;;3.97;;
66739;SDS011;53653;52.188;8.602;2023-12-20T04:23:43;18.50;;;5.75;;
66739;SDS011;53653;52.188;8.602;2023-12-20T04:26:08;14.00;;;5.33;;
66739;SDS011;53653;52.188;8.602;2023-12-20T04:28:34;18.30;;;4.90;;
66739;SDS011;53653;52.188;8.602;2023-12-20T04:30:59;19.60;;;5.03;;
66739;SDS011;53653;52.188;8.602;2023-12-20T04:33:25;19.27;;;5.53;;
66739;SDS011;53653;52.188;8.602;2023-12-20T04:35:50;16.73;;;4.85;;
66739;SDS011;53653;52.188;8.602;2023-12-20T04:38:16;19.27;;;4.70;;
66739;SDS011;53653;52.188;8.602;2023-12-20T04:40:42;13.32;;;4.65;;
66739;SDS011;53653;52.188;8.602;2023-12-20T04:43:07;18.70;;;4.47;;
66739;SDS011;53653;52.188;8.602;2023-12-20T04:45:34;13.88;;;4.60;;
66739;SDS011;53653;52.188;8.602;2023-12-20T04:48:00;14.00;;;3.80;;
66739;SDS011;53653;52.188;8.602;2023-12-20T04:50:27;18.60;;;5.10;;
66739;SDS011;53653;52.188;8.602;2023-12-20T04:52:52;15.43;;;4.50;;
66739;SDS011;53653;52.188;8.602;2023-12-20T04:55:18;13.10;;;3.92;;
66739;SDS011;53653;52.188;8.602;2023-12-20T04:57:43;19.83;;;4.60;;
66739;SDS011;53653;52.188;8.602;2023-12-20T05:00:09;13.67;;;4.30;;
66739;SDS011;53653;52.188;8.602;2023-12-20T05:02:35;16.45;;;4.38;;
66739;SDS011;53653;52.188;8.602;2023-12-20T05:05:01;19.30;;;4.78;;
66739;SDS011;53653;52.188;8.602;2023-12-20T05:07:27;13.57;;;3.83;;
66739;SDS011;53653;52.188;8.602;2023-12-20T05:09:52;10.90;;;4.03;;
66739;SDS011;53653;52.188;8.602;2023-12-20T05:12:18;15.40;;;4.40;;
66739;SDS011;53653;52.188;8.602;2023-12-20T05:14:44;15.23;;;4.10;;
66739;SDS011;53653;52.188;8.602;2023-12-20T05:17:09;12.43;;;4.07;;
66739;SDS011;53653;52.188;8.602;2023-12-20T05:19:34;11.33;;;3.37;;
66739;SDS011;53653;52.188;8.602;2023-12-20T05:22:00;13.23;;;3.40;;
66739;SDS011;53653;52.188;8.602;2023-12-20T05:24:27;16.23;;;3.78;;
66739;SDS011;53653;52.188;8.602;2023-12-20T05:26:52;22.37;;;4.63;;
66739;SDS011;53653;52.188;8.602;2023-12-20T05:29:18;21.87;;;4.47;;
66739;SDS011;53653;52.188;8.602;2023-12-20T05:31:43;21.05;;;4.88;;
66739;SDS011;53653;52.188;8.602;2023-12-20T05:34:08;15.73;;;4.13;;
66739;SDS011;53653;52.188;8.602;2023-12-20T05:36:34;18.90;;;4.20;;
66739;SDS011;53653;52.188;8.602;2023-12-20T05:39:00;17.10;;;4.18;;
66739;SDS011;53653;52.188;8.602;2023-12-20T05:41:25;14.27;;;3.33;;
66739;SDS011;53653;52.188;8.602;2023-12-20T05:43:57;16.27;;;4.17;;
66739;SDS011;53653;52.188;8.602;2023-12-20T05:46:23;13.95;;;3.83;;
66739;SDS011;53653;52.188;8.602;2023-12-20T05:48:49;19.27;;;4.72;;
66739;SDS011;53653;52.188;8.602;2023-12-20T05:51:15;20.77;;;4.57;;
66739;SDS011;53653;52.188;8.602;2023-12-20T05:53:40;14.47;;;4.07;;
66739;SDS011;53653;52.188;8.602;2023-12-20T05:56:06;16.60;;;4.33;;
66739;SDS011;53653;52.188;8.602;2023-12-20T05:58:32;16.90;;;4.00;;
66739;SDS011;53653;52.188;8.602;2023-12-20T06:00:58;16.83;;;4.03;;
66739;SDS011;53653;52.188;8.602;2023-12-20T06:03:23;16.93;;;3.73;;
66739;SDS011;53653;52.188;8.602;2023-12-20T06:05:49;13.03;;;3.60;;
66739;SDS011;53653;52.188;8.602;2023-12-20T06:08:14;17.33;;;3.97;;
66739;SDS011;53653;52.188;8.602;2023-12-20T06:10:40;17.63;;;3.92;;
66739;SDS011;53653;52.188;8.602;2023-12-20T06:13:05;14.07;;;3.63;;
66739;SDS011;53653;52.188;8.602;2023-12-20T06:15:32;11.10;;;3.58;;
66739;SDS011;53653;52.188;8.602;2023-12-20T06:17:58;12.60;;;3.30;;
66739;SDS011;53653;52.188;8.602;2023-12-20T06:20:23;19.40;;;4.07;;
66739;SDS011;53653;52.188;8.602;2023-12-20T06:22:50;16.35;;;3.92;;
66739;SDS011;53653;52.188;8.602;2023-12-20T06:25:16;18.20;;;4.43;;
66739;SDS011;53653;52.188;8.602;2023-12-20T06:27:41;16.08;;;4.85;;
66739;SDS011;53653;52.188;8.602;2023-12-20T06:30:07;26.03;;;4.97;;
66739;SDS011;53653;52.188;8.602;2023-12-20T06:32:36;18.65;;;4.35;;
66739;SDS011;53653;52.188;8.602;2023-12-20T06:35:03;20.10;;;4.57;;
66739;SDS011;53653;52.188;8.602;2023-12-20T06:37:30;15.20;;;4.35;;
66739;SDS011;53653;52.188;8.602;2023-12-20T06:39:55;24.37;;;6.03;;
66739;SDS011;53653;52.188;8.602;2023-12-20T06:42:22;13.15;;;4.72;;
66739;SDS011;53653;52.188;8.602;2023-12-20T06:44:47;21.92;;;4.72;;
66739;SDS011;53653;52.188;8.602;2023-12-20T06:47:13;25.37;;;5.53;;
66739;SDS011;53653;52.188;8.602;2023-12-20T06:49:39;17.63;;;4.80;;
66739;SDS011;53653;52.188;8.602;2023-12-20T06:52:05;19.15;;;5.90;;
66739;SDS011;53653;52.188;8.602;2023-12-20T06:54:31;22.47;;;5.90;;
66739;SDS011;53653;52.188;8.602;2023-12-20T06:56:59;16.92;;;5.57;;
66739;SDS011;53653;52.188;8.602;2023-12-20T06:59:24;15.30;;;5.43;;
66739;SDS011;53653;52.188;8.602;2023-12-20T07:01:51;20.60;;;5.40;;
66739;SDS011;53653;52.188;8.602;2023-12-20T07:04:16;21.15;;;5.90;;
66739;SDS011;53653;52.188;8.602;2023-12-20T07:06:45;19.45;;;5.68;;
66739;SDS011;53653;52.188;8.602;2023-12-20T07:09:11;20.97;;;5.77;;
66739;SDS011;53653;52.188;8.602;2023-12-20T07:11:38;20.10;;;6.25;;
66739;SDS011;53653;52.188;8.602;2023-12-20T07:14:03;21.63;;;5.47;;
66739;SDS011;53653;52.188;8.602;2023-12-20T07:16:29;29.30;;;6.45;;
66739;SDS011;53653;52.188;8.602;2023-12-20T07:18:55;21.03;;;5.53;;
66739;SDS011;53653;52.188;8.602;2023-12-20T07:21:21;13.90;;;5.15;;
66739;SDS011;53653;52.188;8.602;2023-12-20T07:23:46;18.23;;;5.70;;
66739;SDS011;53653;52.188;8.602;2023-12-20T07:26:12;22.57;;;5.43;;
66739;SDS011;53653;52.188;8.602;2023-12-20T07:28:38;16.80;;;5.13;;
66739;SDS011;53653;52.188;8.602;2023-12-20T07:31:03;21.60;;;4.53;;
66739;SDS011;53653;52.188;8.602;2023-12-20T07:33:29;22.20;;;5.80;;
66739;SDS011;53653;52.188;8.602;2023-12-20T07:35:55;12.38;;;4.68;;
66739;SDS011;53653;52.188;8.602;2023-12-20T07:38:20;18.30;;;5.28;;
66739;SDS011;53653;52.188;8.602;2023-12-20T07:40:46;15.40;;;4.57;;
66739;SDS011;53653;52.188;8.602;2023-12-20T07:43:11;19.73;;;5.60;;
66739;SDS011;53653;52.188;8.602;2023-12-20T07:45:36;16.53;;;4.63;;
66739;SDS011;53653;52.188;8.602;2023-12-20T07:48:03;19.33;;;4.95;;
66739;SDS011;53653;52.188;8.602;2023-12-20T07:50:29;25.92;;;6.03;;
66739;SDS011;53653;52.188;8.602;2023-12-20T07:52:54;16.97;;;5.30;;
66739;SDS011;53653;52.188;8.602;2023-12-20T07:55:20;21.33;;;6.60;;
66739;SDS011;53653;52.188;8.602;2023-12-20T07:57:45;15.93;;;4.93;;
66739;SDS011;53653;52.188;8.602;2023-12-20T08:00:11;16.13;;;4.63;;
66739;SDS011;53653;52.188;8.602;2023-12-20T08:02:37;17.02;;;4.85;;
66739;SDS011;53653;52.188;8.602;2023-12-20T08:05:03;17.93;;;4.97;;
66739;SDS011;53653;52.188;8.602;2023-12-20T08:07:29;21.98;;;5.85;;
66739;SDS011;53653;52.188;8.602;2023-12-20T08:09:54;18.43;;;4.33;;
66739;SDS011;53653;52.188;8.602;2023-12-20T08:12:21;20.92;;;4.72;;
66739;SDS011;53653;52.188;8.602;2023-12-20T08:14:47;16.48;;;4.82;;
66739;SDS011;53653;52.188;8.602;2023-12-20T08:17:13;19.60;;;5.17;;
66739;SDS011;53653;52.188;8.602;2023-12-20T08:19:41;18.50;;;4.05;;
66739;SDS011;53653;52.188;8.602;2023-12-20T08:22:06;18.57;;;4.03;;
66739;SDS011;53653;52.188;8.602;2023-12-20T08:24:32;19.43;;;4.63;;
66739;SDS011;53653;52.188;8.602;2023-12-20T08:26:57;16.52;;;4.35;;
66739;SDS011;53653;52.188;8.602;2023-12-20T08:29:23;15.03;;;4.00;;
66739;SDS011;53653;52.188;8.602;2023-12-20T08:31:52;15.67;;;4.13;;
66739;SDS011;53653;52.188;8.602;2023-12-20T08:34:18;18.58;;;4.18;;
66739;SDS011;53653;52.188;8.602;2023-12-20T08:36:44;22.67;;;4.07;;
66739;SDS011;53653;52.188;8.602;2023-12-20T08:39:09;14.20;;;3.93;;
66739;SDS011;53653;52.188;8.602;2023-12-20T08:41:35;14.82;;;3.97;;
66739;SDS011;53653;52.188;8.602;2023-12-20T08:44:02;14.77;;;3.43;;
66739;SDS011;53653;52.188;8.602;2023-12-20T08:46:28;28.83;;;5.38;;
66739;SDS011;53653;52.188;8.602;2023-12-20T08:48:54;13.43;;;3.93;;
66739;SDS011;53653;52.188;8.602;2023-12-20T08:51:19;21.70;;;4.47;;
66739;SDS011;53653;52.188;8.602;2023-12-20T08:53:46;14.82;;;4.13;;
66739;SDS011;53653;52.188;8.602;2023-12-20T08:56:12;18.47;;;3.80;;
66739;SDS011;53653;52.188;8.602;2023-12-20T08:58:38;11.98;;;3.60;;
66739;SDS011;53653;52.188;8.602;2023-12-20T09:01:03;23.03;;;5.23;;
66739;SDS011;53653;52.188;8.602;2023-12-20T09:03:29;16.53;;;4.87;;
66739;SDS011;53653;52.188;8.602;2023-12-20T09:05:54;20.70;;;3.97;;
66739;SDS011;53653;52.188;8.602;2023-12-20T09:08:20;18.07;;;4.80;;
66739;SDS011;53653;52.188;8.602;2023-12-20T09:10:45;14.13;;;3.87;;
66739;SDS011;53653;52.188;8.602;2023-12-20T09:13:11;18.77;;;4.87;;
66739;SDS011;53653;52.188;8.602;2023-12-20T09:15:36;15.07;;;3.83;;
66739;SDS011;53653;52.188;8.602;2023-12-20T09:18:02;22.77;;;4.27;;
66739;SDS011;53653;52.188;8.602;2023-12-20T09:20:27;17.47;;;4.63;;
66739;SDS011;53653;52.188;8.602;2023-12-20T09:22:53;18.30;;;5.05;;
66739;SDS011;53653;52.188;8.602;2023-12-20T09:25:18;20.77;;;5.10;;
66739;SDS011;53653;52.188;8.602;2023-12-20T09:27:44;16.10;;;4.70;;
66739;SDS011;53653;52.188;8.602;2023-12-20T09:30:09;16.50;;;4.75;;
66739;SDS011;53653;52.188;8.602;2023-12-20T09:32:35;16.57;;;4.53;;
66739;SDS011;53653;52.188;8.602;2023-12-20T09:35:01;13.80;;;4.03;;
66739;SDS011;53653;52.188;8.602;2023-12-20T09:37:27;18.42;;;4.93;;
66739;SDS011;53653;52.188;8.602;2023-12-20T09:39:53;16.98;;;4.95;;
66739;SDS011;53653;52.188;8.602;2023-12-20T09:42:31;19.37;;;4.67;;
66739;SDS011;53653;52.188;8.602;2023-12-20T09:45:12;17.10;;;5.65;;
66739;SDS011;53653;52.188;8.602;2023-12-20T09:47:41;18.17;;;4.32;;
66739;SDS011;53653;52.188;8.602;2023-12-20T09:50:08;26.95;;;6.07;;
66739;SDS011;53653;52.188;8.602;2023-12-20T09:52:35;14.30;;;4.47;;
66739;SDS011;53653;52.188;8.602;2023-12-20T09:55:01;17.27;;;4.57;;
66739;SDS011;53653;52.188;8.602;2023-12-20T09:57:31;16.23;;;5.15;;
66739;SDS011;53653;52.188;8.602;2023-12-20T09:59:57;15.80;;;4.05;;
66739;SDS011;53653;52.188;8.602;2023-12-20T10:02:23;16.03;;;4.90;;
66739;SDS011;53653;52.188;8.602;2023-12-20T10:04:52;12.48;;;4.65;;
66739;SDS011;53653;52.188;8.602;2023-12-20T10:07:18;15.20;;;4.65;;
66739;SDS011;53653;52.188;8.602;2023-12-20T10:09:44;18.23;;;4.57;;
66739;SDS011;53653;52.188;8.602;2023-12-20T10:12:09;15.88;;;4.47;;
66739;SDS011;53653;52.188;8.602;2023-12-20T10:14:35;18.60;;;4.33;;
66739;SDS011;53653;52.188;8.602;2023-12-20T10:17:04;18.40;;;5.13;;
66739;SDS011;53653;52.188;8.602;2023-12-20T10:19:30;17.35;;;4.65;;
66739;SDS011;53653;52.188;8.602;2023-12-20T10:21:57;10.95;;;3.70;;
66739;SDS011;53653;52.188;8.602;2023-12-20T10:24:24;15.10;;;3.95;;
66739;SDS011;53653;52.188;8.602;2023-12-20T10:27:00;18.57;;;5.90;;
66739;SDS011;53653;52.188;8.602;2023-12-20T10:29:31;15.23;;;5.22;;
66739;SDS011;53653;52.188;8.602;2023-12-20T10:31:57;14.70;;;4.72;;
66739;SDS011;53653;52.188;8.602;2023-12-20T10:34:23;19.30;;;4.47;;
66739;SDS011;53653;52.188;8.602;2023-12-20T10:36:49;21.58;;;5.03;;
66739;SDS011;53653;52.188;8.602;2023-12-20T10:39:14;19.50;;;5.00;;
66739;SDS011;53653;52.188;8.602;2023-12-20T10:41:40;16.65;;;5.22;;
66739;SDS011;53653;52.188;8.602;2023-12-20T10:44:07;16.27;;;4.32;;
66739;SDS011;53653;52.188;8.602;2023-12-20T10:46:35;17.57;;;4.07;;
66739;SDS011;53653;52.188;8.602;2023-12-20T10:49:03;16.95;;;4.18;;
66739;SDS011;53653;52.188;8.602;2023-12-20T10:51:30;16.77;;;4.25;;
66739;SDS011;53653;52.188;8.602;2023-12-20T10:53:56;15.02;;;3.72;;
66739;SDS011;53653;52.188;8.602;2023-12-20T10:56:22;15.83;;;4.13;;
66739;SDS011;53653;52.188;8.602;2023-12-20T10:58:51;21.88;;;4.28;;
66739;SDS011;53653;52.188;8.602;2023-12-20T11:01:17;14.23;;;3.97;;
66739;SDS011;53653;52.188;8.602;2023-12-20T11:03:51;11.57;;;2.95;;
66739;SDS011;53653;52.188;8.602;2023-12-20T11:09:04;12.93;;;3.00;;
66739;SDS011;53653;52.188;8.602;2023-12-20T11:14:15;7.07;;;2.40;;
66739;SDS011;53653;52.188;8.602;2023-12-20T11:16:45;8.73;;;2.40;;
66739;SDS011;53653;52.188;8.602;2023-12-20T11:19:11;16.20;;;3.07;;
66739;SDS011;53653;52.188;8.602;2023-12-20T11:21:39;8.75;;;2.00;;
66739;SDS011;53653;52.188;8.602;2023-12-20T11:24:05;7.10;;;2.42;;
66739;SDS011;53653;52.188;8.602;2023-12-20T11:26:31;11.70;;;2.40;;
66739;SDS011;53653;52.188;8.602;2023-12-20T11:32:03;11.32;;;2.47;;
66739;SDS011;53653;52.188;8.602;2023-12-20T11:34:50;9.68;;;2.67;;
66739;SDS011;53653;52.188;8.602;2023-12-20T11:37:16;10.32;;;2.15;;
66739;SDS011;53653;52.188;8.602;2023-12-20T11:39:45;10.03;;;2.60;;
66739;SDS011;53653;52.188;8.602;2023-12-20T11:42:10;8.43;;;2.33;;
66739;SDS011;53653;52.188;8.602;2023-12-20T11:44:36;14.33;;;2.63;;
66739;SDS011;53653;52.188;8.602;2023-12-20T11:47:02;8.90;;;2.25;;
66739;SDS011;53653;52.188;8.602;2023-12-20T11:49:28;7.35;;;2.08;;
66739;SDS011;53653;52.188;8.602;2023-12-20T11:51:56;8.43;;;2.03;;
66739;SDS011;53653;52.188;8.602;2023-12-20T11:54:22;8.43;;;2.42;;
66739;SDS011;53653;52.188;8.602;2023-12-20T11:56:48;10.97;;;2.63;;
66739;SDS011;53653;52.188;8.602;2023-12-20T11:59:13;11.68;;;2.50;;
66739;SDS011;53653;52.188;8.602;2023-12-20T12:01:40;10.40;;;2.95;;
66739;SDS011;53653;52.188;8.602;2023-12-20T12:04:12;10.37;;;2.53;;
66739;SDS011;53653;52.188;8.602;2023-12-20T12:06:37;8.93;;;2.30;;
66739;SDS011;53653;52.188;8.602;2023-12-20T12:09:03;7.70;;;2.43;;
66739;SDS011;53653;52.188;8.602;2023-12-20T12:11:29;8.70;;;2.45;;
66739;SDS011;53653;52.188;8.602;2023-12-20T12:13:55;9.70;;;2.50;;
66739;SDS011;53653;52.188;8.602;2023-12-20T12:16:20;8.68;;;2.85;;
66739;SDS011;53653;52.188;8.602;2023-12-20T12:18:46;17.03;;;2.93;;
66739;SDS011;53653;52.188;8.602;2023-12-20T12:21:20;16.65;;;4.65;;
66739;SDS011;53653;52.188;8.602;2023-12-20T12:23:46;14.20;;;3.20;;
66739;SDS011;53653;52.188;8.602;2023-12-20T12:26:11;13.68;;;3.20;;
66739;SDS011;53653;52.188;8.602;2023-12-20T12:28:39;9.00;;;2.60;;
66739;SDS011;53653;52.188;8.602;2023-12-20T12:31:06;11.43;;;2.40;;
66739;SDS011;53653;52.188;8.602;2023-12-20T12:33:32;16.08;;;2.90;;
66739;SDS011;53653;52.188;8.602;2023-12-20T12:35:59;10.10;;;2.30;;
66739;SDS011;53653;52.188;8.602;2023-12-20T12:38:29;11.23;;;2.33;;
66739;SDS011;53653;52.188;8.602;2023-12-20T12:40:55;8.68;;;1.88;;
66739;SDS011;53653;52.188;8.602;2023-12-20T12:43:21;4.90;;;1.60;;
66739;SDS011;53653;52.188;8.602;2023-12-20T12:45:48;10.60;;;1.73;;
66739;SDS011;53653;52.188;8.602;2023-12-20T12:48:14;10.47;;;1.97;;
66739;SDS011;53653;52.188;8.602;2023-12-20T12:50:40;7.38;;;1.80;;
66739;SDS011;53653;52.188;8.602;2023-12-20T12:53:05;8.45;;;1.65;;
66739;SDS011;53653;52.188;8.602;2023-12-20T12:55:31;5.60;;;1.60;;
66739;SDS011;53653;52.188;8.602;2023-12-20T12:57:56;8.33;;;1.30;;
66739;SDS011;53653;52.188;8.602;2023-12-20T13:00:22;8.90;;;1.80;;
66739;SDS011;53653;52.188;8.602;2023-12-20T13:02:48;5.13;;;1.20;;
66739;SDS011;53653;52.188;8.602;2023-12-20T13:05:14;5.68;;;1.20;;
66739;SDS011;53653;52.188;8.602;2023-12-20T13:07:39;5.67;;;1.20;;
66739;SDS011;53653;52.188;8.602;2023-12-20T13:10:05;9.65;;;1.60;;
66739;SDS011;53653;52.188;8.602;2023-12-20T13:12:31;6.17;;;1.00;;
66739;SDS011;53653;52.188;8.602;2023-12-20T13:14:57;5.80;;;1.10;;
66739;SDS011;53653;52.188;8.602;2023-12-20T13:17:23;6.65;;;1.58;;
66739;SDS011;53653;52.188;8.602;2023-12-20T13:19:48;5.50;;;1.23;;
66739;SDS011;53653;52.188;8.602;2023-12-20T13:22:15;5.60;;;1.30;;
66739;SDS011;53653;52.188;8.602;2023-12-20T13:24:41;6.95;;;1.27;;
66739;SDS011;53653;52.188;8.602;2023-12-20T13:27:09;8.10;;;1.38;;
66739;SDS011;53653;52.188;8.602;2023-12-20T13:29:35;6.80;;;1.50;;
66739;SDS011;53653;52.188;8.602;2023-12-20T13:32:00;5.67;;;1.53;;
66739;SDS011;53653;52.188;8.602;2023-12-20T13:34:26;6.97;;;1.40;;
66739;SDS011;53653;52.188;8.602;2023-12-20T13:36:52;7.03;;;1.53;;
66739;SDS011;53653;52.188;8.602;2023-12-20T13:39:17;7.83;;;1.40;;
66739;SDS011;53653;52.188;8.602;2023-12-20T13:41:43;5.75;;;1.25;;
66739;SDS011;53653;52.188;8.602;2023-12-20T13:44:08;8.63;;;1.50;;
66739;SDS011;53653;52.188;8.602;2023-12-20T13:46:34;6.60;;;1.33;;
66739;SDS011;53653;52.188;8.602;2023-12-20T13:49:01;9.95;;;1.70;;
66739;SDS011;53653;52.188;8.602;2023-12-20T13:51:27;7.05;;;1.55;;
66739;SDS011;53653;52.188;8.602;2023-12-20T13:53:52;8.40;;;2.00;;
66739;SDS011;53653;52.188;8.602;2023-12-20T13:56:18;7.80;;;1.63;;
66739;SDS011;53653;52.188;8.602;2023-12-20T13:58:45;8.85;;;1.48;;
66739;SDS011;53653;52.188;8.602;2023-12-20T14:01:12;7.13;;;1.30;;
66739;SDS011;53653;52.188;8.602;2023-12-20T14:03:37;7.47;;;1.50;;
66739;SDS011;53653;52.188;8.602;2023-12-20T14:06:03;6.70;;;1.40;;
66739;SDS011;53653;52.188;8.602;2023-12-20T14:08:28;7.00;;;1.20;;
66739;SDS011;53653;52.188;8.602;2023-12-20T14:10:54;4.57;;;1.53;;
66739;SDS011;53653;52.188;8.602;2023-12-20T14:13:19;7.90;;;1.40;;
66739;SDS011;53653;52.188;8.602;2023-12-20T14:15:46;8.05;;;1.50;;
66739;SDS011;53653;52.188;8.602;2023-12-20T14:18:12;7.50;;;1.83;;
66739;SDS011;53653;52.188;8.602;2023-12-20T14:20:40;7.35;;;1.48;;
66739;SDS011;53653;52.188;8.602;2023-12-20T14:23:07;13.53;;;2.53;;
66739;SDS011;53653;52.188;8.602;2023-12-20T14:25:34;14.80;;;3.10;;
66739;SDS011;53653;52.188;8.602;2023-12-20T14:28:02;10.35;;;3.30;;
66739;SDS011;53653;52.188;8.602;2023-12-20T14:30:29;24.48;;;8.68;;
66739;SDS011;53653;52.188;8.602;2023-12-20T14:32:54;23.17;;;9.17;;
66739;SDS011;53653;52.188;8.602;2023-12-20T14:35:20;40.13;;;16.70;;
66739;SDS011;53653;52.188;8.602;2023-12-20T14:37:45;11.68;;;3.15;;
66739;SDS011;53653;52.188;8.602;2023-12-20T14:40:13;36.10;;;11.67;;